sensor_id;sensor_type;location;lat;lon;timestamp;pressure;altitude;pressure_sealevel;temperature;humidity
52535;BME280;38443;53.164;5.802;2023-02-19T00:00:52;101679.16;;;6.86;100.00
52535;BME280;38443;53.164;5.802;2023-02-19T00:03:17;101684.44;;;6.87;100.00
52535;BME280;38443;53.164;5.802;2023-02-19T00:05:42;101685.34;;;6.86;100.00
52535;BME280;38443;53.164;5.802;2023-02-19T00:08:08;101687.13;;;6.86;100.00
52535;BME280;38443;53.164;5.802;2023-02-19T00:10:33;101691.53;;;6.85;100.00
52535;BME280;38443;53.164;5.802;2023-02-19T00:12:58;101689.78;;;6.86;100.00
52535;BME280;38443;53.164;5.802;2023-02-19T00:15:24;101682.69;;;6.86;100.00
52535;BME280;38443;53.164;5.802;2023-02-19T00:17:49;101694.19;;;6.85;100.00
52535;BME280;38443;53.164;5.802;2023-02-19T00:20:14;101694.19;;;6.85;100.00
52535;BME280;38443;53.164;5.802;2023-02-19T00:22:40;101695.09;;;6.86;100.00
52535;BME280;38443;53.164;5.802;2023-02-19T00:25:05;101692.41;;;6.87;100.00
52535;BME280;38443;53.164;5.802;2023-02-19T00:27:31;101699.53;;;6.87;100.00
52535;BME280;38443;53.164;5.802;2023-02-19T00:29:56;101681.81;;;6.86;100.00
52535;BME280;38443;53.164;5.802;2023-02-19T00:32:22;101685.34;;;6.86;100.00
52535;BME280;38443;53.164;5.802;2023-02-19T00:34:47;101689.78;;;6.89;100.00
52535;BME280;38443;53.164;5.802;2023-02-19T00:37:13;101687.13;;;6.90;100.00
52535;BME280;38443;53.164;5.802;2023-02-19T00:39:38;101682.66;;;6.91;100.00
52535;BME280;38443;53.164;5.802;2023-02-19T00:42:03;101689.75;;;6.93;100.00
52535;BME280;38443;53.164;5.802;2023-02-19T00:44:28;101682.69;;;6.92;100.00
52535;BME280;38443;53.164;5.802;2023-02-19T00:46:54;101684.44;;;6.95;100.00
52535;BME280;38443;53.164;5.802;2023-02-19T00:49:20;101686.22;;;6.94;100.00
52535;BME280;38443;53.164;5.802;2023-02-19T00:51:46;101693.31;;;6.97;100.00
52535;BME280;38443;53.164;5.802;2023-02-19T00:54:12;101691.53;;;6.97;100.00
52535;BME280;38443;53.164;5.802;2023-02-19T00:56:38;101682.66;;;6.95;100.00
52535;BME280;38443;53.164;5.802;2023-02-19T00:59:04;101677.34;;;6.92;100.00
52535;BME280;38443;53.164;5.802;2023-02-19T01:01:29;101683.53;;;6.91;100.00
52535;BME280;38443;53.164;5.802;2023-02-19T01:03:55;101688.00;;;6.89;100.00
52535;BME280;38443;53.164;5.802;2023-02-19T01:06:20;101682.69;;;6.88;100.00
52535;BME280;38443;53.164;5.802;2023-02-19T01:08:45;101698.66;;;6.88;100.00
52535;BME280;38443;53.164;5.802;2023-02-19T01:11:11;101691.53;;;6.85;100.00
52535;BME280;38443;53.164;5.802;2023-02-19T01:13:38;101679.13;;;6.83;100.00
52535;BME280;38443;53.164;5.802;2023-02-19T01:16:11;101692.44;;;6.81;100.00
52535;BME280;38443;53.164;5.802;2023-02-19T01:18:37;101691.53;;;6.79;100.00
52535;BME280;38443;53.164;5.802;2023-02-19T01:21:09;101701.28;;;6.77;100.00
52535;BME280;38443;53.164;5.802;2023-02-19T01:23:36;101697.75;;;6.76;100.00
52535;BME280;38443;53.164;5.802;2023-02-19T01:26:05;101686.22;;;6.74;100.00
52535;BME280;38443;53.164;5.802;2023-02-19T01:28:30;101700.41;;;6.73;100.00
52535;BME280;38443;53.164;5.802;2023-02-19T01:30:59;101702.19;;;6.71;100.00
52535;BME280;38443;53.164;5.802;2023-02-19T01:33:24;101704.88;;;6.70;100.00
52535;BME280;38443;53.164;5.802;2023-02-19T01:35:49;101715.50;;;6.70;100.00
52535;BME280;38443;53.164;5.802;2023-02-19T01:38:15;101719.03;;;6.70;100.00
52535;BME280;38443;53.164;5.802;2023-02-19T01:40:40;101712.84;;;6.70;100.00
52535;BME280;38443;53.164;5.802;2023-02-19T01:43:14;101707.53;;;6.70;100.00
52535;BME280;38443;53.164;5.802;2023-02-19T01:45:44;101711.94;;;6.71;100.00
52535;BME280;38443;53.164;5.802;2023-02-19T01:53:23;101713.72;;;6.70;100.00
52535;BME280;38443;53.164;5.802;2023-02-19T01:55:52;101718.16;;;6.70;100.00
52535;BME280;38443;53.164;5.802;2023-02-19T01:58:20;101711.06;;;6.69;100.00
52535;BME280;38443;53.164;5.802;2023-02-19T02:00:47;101719.03;;;6.69;100.00
52535;BME280;38443;53.164;5.802;2023-02-19T02:03:12;101727.91;;;6.66;100.00
52535;BME280;38443;53.164;5.802;2023-02-19T02:08:13;101724.34;;;6.63;100.00
52535;BME280;38443;53.164;5.802;2023-02-19T02:10:58;101727.91;;;6.62;100.00
52535;BME280;38443;53.164;5.802;2023-02-19T02:13:23;101736.75;;;6.61;100.00
52535;BME280;38443;53.164;5.802;2023-02-19T02:15:59;101739.41;;;6.59;100.00
52535;BME280;38443;53.164;5.802;2023-02-19T02:26:34;101749.16;;;6.52;100.00
52535;BME280;38443;53.164;5.802;2023-02-19T02:29:20;101750.06;;;6.50;100.00
52535;BME280;38443;53.164;5.802;2023-02-19T02:32:01;101747.38;;;6.48;100.00
52535;BME280;38443;53.164;5.802;2023-02-19T02:34:46;101749.16;;;6.48;100.00
52535;BME280;38443;53.164;5.802;2023-02-19T02:37:13;101754.47;;;6.46;100.00
52535;BME280;38443;53.164;5.802;2023-02-19T02:39:40;101750.91;;;6.44;100.00
52535;BME280;38443;53.164;5.802;2023-02-19T02:42:06;101766.88;;;6.43;100.00
52535;BME280;38443;53.164;5.802;2023-02-19T02:44:50;101766.00;;;6.44;100.00
52535;BME280;38443;53.164;5.802;2023-02-19T02:47:38;101777.50;;;6.43;100.00
52535;BME280;38443;53.164;5.802;2023-02-19T02:50:07;101780.16;;;6.41;100.00
52535;BME280;38443;53.164;5.802;2023-02-19T02:52:35;101776.59;;;6.39;100.00
52535;BME280;38443;53.164;5.802;2023-02-19T02:55:21;101777.50;;;6.39;100.00
52535;BME280;38443;53.164;5.802;2023-02-19T02:57:46;101782.78;;;6.35;100.00
52535;BME280;38443;53.164;5.802;2023-02-19T03:00:13;101798.72;;;6.33;100.00
52535;BME280;38443;53.164;5.802;2023-02-19T03:02:40;101791.63;;;6.29;100.00
52535;BME280;38443;53.164;5.802;2023-02-19T03:05:13;101796.94;;;6.26;100.00
52535;BME280;38443;53.164;5.802;2023-02-19T03:08:06;101806.66;;;6.21;100.00
52535;BME280;38443;53.164;5.802;2023-02-19T03:10:57;101810.16;;;6.11;100.00
52535;BME280;38443;53.164;5.802;2023-02-19T03:13:44;101831.38;;;6.03;100.00
52535;BME280;38443;53.164;5.802;2023-02-19T03:16:32;101829.53;;;5.93;100.00
52535;BME280;38443;53.164;5.802;2023-02-19T03:19:21;101840.09;;;5.82;100.00
52535;BME280;38443;53.164;5.802;2023-02-19T03:24:20;101836.50;;;5.69;100.00
52535;BME280;38443;53.164;5.802;2023-02-19T03:27:05;101827.59;;;5.64;100.00
52535;BME280;38443;53.164;5.802;2023-02-19T03:29:35;101839.94;;;5.60;100.00
52535;BME280;38443;53.164;5.802;2023-02-19T03:32:08;101847.00;;;5.57;100.00
52535;BME280;38443;53.164;5.802;2023-02-19T03:34:56;101849.63;;;5.49;100.00
52535;BME280;38443;53.164;5.802;2023-02-19T03:37:28;101842.50;;;5.47;100.00
52535;BME280;38443;53.164;5.802;2023-02-19T03:39:56;101861.06;;;5.45;100.00
52535;BME280;38443;53.164;5.802;2023-02-19T03:47:29;101862.78;;;5.38;100.00
52535;BME280;38443;53.164;5.802;2023-02-19T03:53:01;101869.75;;;5.24;100.00
52535;BME280;38443;53.164;5.802;2023-02-19T03:55:33;101864.41;;;5.19;100.00
52535;BME280;38443;53.164;5.802;2023-02-19T03:58:13;101867.88;;;5.12;100.00
52535;BME280;38443;53.164;5.802;2023-02-19T04:00:46;101871.41;;;5.11;100.00
52535;BME280;38443;53.164;5.802;2023-02-19T04:05:54;101894.34;;;5.06;100.00
52535;BME280;38443;53.164;5.802;2023-02-19T04:08:23;101904.00;;;5.01;100.00
52535;BME280;38443;53.164;5.802;2023-02-19T04:10:50;101911.97;;;5.01;100.00
52535;BME280;38443;53.164;5.802;2023-02-19T04:13:27;101921.72;;;5.02;100.00
52535;BME280;38443;53.164;5.802;2023-02-19T04:15:54;101924.31;;;4.99;100.00
52535;BME280;38443;53.164;5.802;2023-02-19T04:18:25;101942.97;;;5.04;100.00
52535;BME280;38443;53.164;5.802;2023-02-19T04:20:52;101942.09;;;5.06;100.00
52535;BME280;38443;53.164;5.802;2023-02-19T04:23:19;101950.03;;;5.05;100.00
52535;BME280;38443;53.164;5.802;2023-02-19T04:25:49;101955.41;;;5.08;100.00
52535;BME280;38443;53.164;5.802;2023-02-19T04:28:16;101965.13;;;5.07;100.00
52535;BME280;38443;53.164;5.802;2023-02-19T04:30:42;101965.97;;;5.05;100.00
52535;BME280;38443;53.164;5.802;2023-02-19T04:33:08;101971.16;;;4.97;100.00
52535;BME280;38443;53.164;5.802;2023-02-19T04:35:33;101974.72;;;4.99;100.00
52535;BME280;38443;53.164;5.802;2023-02-19T04:37:58;101975.56;;;4.93;100.00
52535;BME280;38443;53.164;5.802;2023-02-19T04:40:24;101978.25;;;4.96;100.00
52535;BME280;38443;53.164;5.802;2023-02-19T04:42:49;101982.63;;;4.93;100.00
52535;BME280;38443;53.164;5.802;2023-02-19T04:45:14;101984.41;;;4.94;100.00
52535;BME280;38443;53.164;5.802;2023-02-19T04:47:39;101994.03;;;4.86;100.00
52535;BME280;38443;53.164;5.802;2023-02-19T04:50:05;101989.66;;;4.88;100.00
52535;BME280;38443;53.164;5.802;2023-02-19T04:52:30;101999.31;;;4.84;100.00
52535;BME280;38443;53.164;5.802;2023-02-19T04:54:57;102008.22;;;4.88;100.00
52535;BME280;38443;53.164;5.802;2023-02-19T04:57:22;102021.38;;;4.80;100.00
52535;BME280;38443;53.164;5.802;2023-02-19T04:59:48;102017.84;;;4.81;100.00
52535;BME280;38443;53.164;5.802;2023-02-19T05:02:13;102014.19;;;4.73;100.00
52535;BME280;38443;53.164;5.802;2023-02-19T05:04:38;102028.38;;;4.75;100.00
52535;BME280;38443;53.164;5.802;2023-02-19T05:07:03;102044.19;;;4.69;100.00
52535;BME280;38443;53.164;5.802;2023-02-19T05:09:29;102038.06;;;4.73;100.00
52535;BME280;38443;53.164;5.802;2023-02-19T05:11:54;102045.06;;;4.68;100.00
52535;BME280;38443;53.164;5.802;2023-02-19T05:14:19;102045.97;;;4.68;100.00
52535;BME280;38443;53.164;5.802;2023-02-19T05:16:45;102049.41;;;4.63;100.00
52535;BME280;38443;53.164;5.802;2023-02-19T05:19:11;102059.19;;;4.67;100.00
52535;BME280;38443;53.164;5.802;2023-02-19T05:21:36;102052.94;;;4.62;100.00
52535;BME280;38443;53.164;5.802;2023-02-19T05:24:02;102060.03;;;4.64;100.00
52535;BME280;38443;53.164;5.802;2023-02-19T05:26:27;102067.97;;;4.61;100.00
52535;BME280;38443;53.164;5.802;2023-02-19T05:28:55;102064.44;;;4.62;100.00
52535;BME280;38443;53.164;5.802;2023-02-19T05:31:20;102060.84;;;4.58;100.00
52535;BME280;38443;53.164;5.802;2023-02-19T05:33:46;102062.63;;;4.59;100.00
52535;BME280;38443;53.164;5.802;2023-02-19T05:36:14;102054.72;;;4.61;100.00
52535;BME280;38443;53.164;5.802;2023-02-19T05:38:40;102067.94;;;4.59;100.00
52535;BME280;38443;53.164;5.802;2023-02-19T05:43:36;102067.13;;;4.64;100.00
52535;BME280;38443;53.164;5.802;2023-02-19T05:46:02;102071.50;;;4.62;100.00
52535;BME280;38443;53.164;5.802;2023-02-19T05:48:27;102078.44;;;4.55;100.00
52535;BME280;38443;53.164;5.802;2023-02-19T05:50:53;102082.06;;;4.58;100.00
52535;BME280;38443;53.164;5.802;2023-02-19T05:53:18;102095.28;;;4.57;100.00
52535;BME280;38443;53.164;5.802;2023-02-19T05:55:43;102112.13;;;4.60;100.00
52535;BME280;38443;53.164;5.802;2023-02-19T05:58:08;102108.50;;;4.54;100.00
52535;BME280;38443;53.164;5.802;2023-02-19T06:00:34;102104.97;;;4.53;100.00
52535;BME280;38443;53.164;5.802;2023-02-19T06:02:59;102123.44;;;4.49;100.00
52535;BME280;38443;53.164;5.802;2023-02-19T06:05:25;102134.03;;;4.49;100.00
52535;BME280;38443;53.164;5.802;2023-02-19T06:07:50;102147.13;;;4.38;100.00
52535;BME280;38443;53.164;5.802;2023-02-19T06:10:16;102155.91;;;4.35;100.00
52535;BME280;38443;53.164;5.802;2023-02-19T06:12:41;102165.50;;;4.29;100.00
52535;BME280;38443;53.164;5.802;2023-02-19T06:15:07;102166.41;;;4.31;100.00
52535;BME280;38443;53.164;5.802;2023-02-19T06:17:32;102172.53;;;4.27;100.00
52535;BME280;38443;53.164;5.802;2023-02-19T06:19:58;102179.66;;;4.29;100.00
52535;BME280;38443;53.164;5.802;2023-02-19T06:22:24;102188.44;;;4.25;100.00
52535;BME280;38443;53.164;5.802;2023-02-19T06:24:49;102195.53;;;4.28;100.00
52535;BME280;38443;53.164;5.802;2023-02-19T06:27:14;102199.84;;;4.23;100.00
52535;BME280;38443;53.164;5.802;2023-02-19T06:29:40;102208.78;;;4.28;100.00
52535;BME280;38443;53.164;5.802;2023-02-19T06:32:05;102208.72;;;4.25;100.00
52535;BME280;38443;53.164;5.802;2023-02-19T06:34:31;102217.59;;;4.27;100.00
52535;BME280;38443;53.164;5.802;2023-02-19T06:36:57;102229.91;;;4.25;100.00
52535;BME280;38443;53.164;5.802;2023-02-19T06:39:23;102233.56;;;4.30;100.00
52535;BME280;38443;53.164;5.802;2023-02-19T06:41:48;102247.63;;;4.26;100.00
52535;BME280;38443;53.164;5.802;2023-02-19T06:44:14;102244.16;;;4.30;100.00
52535;BME280;38443;53.164;5.802;2023-02-19T06:46:39;102241.44;;;4.27;100.00
52535;BME280;38443;53.164;5.802;2023-02-19T06:49:05;102237.97;;;4.29;100.00
52535;BME280;38443;53.164;5.802;2023-02-19T06:51:30;102249.34;;;4.24;100.00
52535;BME280;38443;53.164;5.802;2023-02-19T06:53:57;102260.00;;;4.27;100.00
52535;BME280;38443;53.164;5.802;2023-02-19T06:56:27;102249.28;;;4.20;100.00
52535;BME280;38443;53.164;5.802;2023-02-19T06:58:54;102245.69;;;4.18;100.00
52535;BME280;38443;53.164;5.802;2023-02-19T07:01:20;102256.28;;;4.17;100.00
52535;BME280;38443;53.164;5.802;2023-02-19T07:03:46;102257.09;;;4.14;100.00
52535;BME280;38443;53.164;5.802;2023-02-19T07:06:11;102248.16;;;4.08;100.00
52535;BME280;38443;53.164;5.802;2023-02-19T07:08:37;102243.75;;;4.08;100.00
52535;BME280;38443;53.164;5.802;2023-02-19T07:11:02;102249.00;;;4.05;100.00
52535;BME280;38443;53.164;5.802;2023-02-19T07:13:27;102244.66;;;4.10;100.00
52535;BME280;38443;53.164;5.802;2023-02-19T07:15:59;102239.31;;;4.09;100.00
52535;BME280;38443;53.164;5.802;2023-02-19T07:18:25;102236.78;;;4.15;100.00
52535;BME280;38443;53.164;5.802;2023-02-19T07:20:50;102256.19;;;4.12;100.00
52535;BME280;38443;53.164;5.802;2023-02-19T07:23:16;102257.97;;;4.13;100.00
52535;BME280;38443;53.164;5.802;2023-02-19T07:25:41;102262.25;;;4.05;100.00
52535;BME280;38443;53.164;5.802;2023-02-19T07:28:06;102253.41;;;4.06;100.00
52535;BME280;38443;53.164;5.802;2023-02-19T07:30:32;102258.53;;;3.98;100.00
52535;BME280;38443;53.164;5.802;2023-02-19T07:32:57;102262.97;;;3.98;100.00
52535;BME280;38443;53.164;5.802;2023-02-19T07:35:22;102261.09;;;3.94;100.00
52535;BME280;38443;53.164;5.802;2023-02-19T07:37:47;102261.19;;;3.97;100.00
52535;BME280;38443;53.164;5.802;2023-02-19T07:40:13;102265.56;;;3.95;100.00
52535;BME280;38443;53.164;5.802;2023-02-19T07:42:38;102269.13;;;3.97;100.00
52535;BME280;38443;53.164;5.802;2023-02-19T07:45:03;102287.69;;;3.97;100.00
52535;BME280;38443;53.164;5.802;2023-02-19T07:47:29;102290.34;;;3.98;100.00
52535;BME280;38443;53.164;5.802;2023-02-19T07:49:54;102291.25;;;3.99;100.00
52535;BME280;38443;53.164;5.802;2023-02-19T07:52:19;102294.03;;;4.05;100.00
52535;BME280;38443;53.164;5.802;2023-02-19T07:54:45;102301.06;;;4.05;100.00
52535;BME280;38443;53.164;5.802;2023-02-19T07:57:10;102294.16;;;4.13;100.00
52535;BME280;38443;53.164;5.802;2023-02-19T07:59:35;102310.44;;;4.77;100.00
52535;BME280;38443;53.164;5.802;2023-02-19T08:02:00;102301.34;;;5.69;100.00
52535;BME280;38443;53.164;5.802;2023-02-19T08:04:46;102316.78;;;6.70;100.00
52535;BME280;38443;53.164;5.802;2023-02-19T08:07:12;102318.28;;;7.36;100.00
52535;BME280;38443;53.164;5.802;2023-02-19T08:09:37;102310.63;;;7.89;100.00
52535;BME280;38443;53.164;5.802;2023-02-19T08:12:02;102305.44;;;8.16;100.00
52535;BME280;38443;53.164;5.802;2023-02-19T08:14:46;102311.50;;;7.86;100.00
52535;BME280;38443;53.164;5.802;2023-02-19T08:17:11;102327.03;;;7.23;100.00
52535;BME280;38443;53.164;5.802;2023-02-19T08:19:37;102334.72;;;6.91;100.00
52535;BME280;38443;53.164;5.802;2023-02-19T08:22:02;102336.88;;;6.43;100.00
52535;BME280;38443;53.164;5.802;2023-02-19T08:24:28;102342.00;;;6.26;100.00
52535;BME280;38443;53.164;5.802;2023-02-19T08:26:53;102354.94;;;6.00;100.00
52535;BME280;38443;53.164;5.802;2023-02-19T08:29:18;102361.13;;;6.01;100.00
52535;BME280;38443;53.164;5.802;2023-02-19T08:31:44;102369.69;;;5.83;100.00
52535;BME280;38443;53.164;5.802;2023-02-19T08:34:09;102370.72;;;5.91;100.00
52535;BME280;38443;53.164;5.802;2023-02-19T08:36:34;102373.16;;;5.77;100.00
52535;BME280;38443;53.164;5.802;2023-02-19T08:39:00;102378.63;;;5.86;100.00
52535;BME280;38443;53.164;5.802;2023-02-19T08:41:25;102365.19;;;5.75;100.00
52535;BME280;38443;53.164;5.802;2023-02-19T08:43:51;102372.34;;;5.79;100.00
52535;BME280;38443;53.164;5.802;2023-02-19T08:46:16;102381.13;;;5.75;100.00
52535;BME280;38443;53.164;5.802;2023-02-19T08:48:41;102378.19;;;6.13;100.00
52535;BME280;38443;53.164;5.802;2023-02-19T08:51:08;102380.75;;;6.79;100.00
52535;BME280;38443;53.164;5.802;2023-02-19T08:53:35;102395.63;;;7.46;100.00
52535;BME280;38443;53.164;5.802;2023-02-19T08:56:08;102400.13;;;7.57;100.00
52535;BME280;38443;53.164;5.802;2023-02-19T08:58:33;102403.59;;;7.44;100.00
52535;BME280;38443;53.164;5.802;2023-02-19T09:01:00;102413.09;;;7.19;100.00
52535;BME280;38443;53.164;5.802;2023-02-19T09:03:25;102417.22;;;6.88;100.00
52535;BME280;38443;53.164;5.802;2023-02-19T09:05:51;102426.75;;;6.69;100.00
52535;BME280;38443;53.164;5.802;2023-02-19T09:08:16;102431.84;;;6.50;100.00
52535;BME280;38443;53.164;5.802;2023-02-19T09:10:42;102446.53;;;6.25;100.00
52535;BME280;38443;53.164;5.802;2023-02-19T09:13:07;102443.22;;;6.40;100.00
52535;BME280;38443;53.164;5.802;2023-02-19T09:15:33;102445.09;;;6.49;100.00
52535;BME280;38443;53.164;5.802;2023-02-19T09:17:59;102449.56;;;6.50;100.00
52535;BME280;38443;53.164;5.802;2023-02-19T09:20:24;102460.97;;;6.39;100.00
52535;BME280;38443;53.164;5.802;2023-02-19T09:22:55;102457.50;;;6.47;100.00
52535;BME280;38443;53.164;5.802;2023-02-19T09:25:21;102457.56;;;6.50;100.00
52535;BME280;38443;53.164;5.802;2023-02-19T09:27:46;102457.09;;;6.19;100.00
52535;BME280;38443;53.164;5.802;2023-02-19T09:30:11;102472.94;;;6.10;100.00
52535;BME280;38443;53.164;5.802;2023-02-19T09:32:37;102477.06;;;5.94;100.00
52535;BME280;38443;53.164;5.802;2023-02-19T09:35:02;102494.03;;;6.01;100.00
52535;BME280;38443;53.164;5.802;2023-02-19T09:37:27;102479.78;;;5.95;100.00
52535;BME280;38443;53.164;5.802;2023-02-19T09:39:53;102462.41;;;6.19;100.00
52535;BME280;38443;53.164;5.802;2023-02-19T09:42:22;102463.44;;;6.29;100.00
52535;BME280;38443;53.164;5.802;2023-02-19T09:44:51;102458.34;;;6.44;100.00
52535;BME280;38443;53.164;5.802;2023-02-19T09:47:19;102456.63;;;6.48;100.00
52535;BME280;38443;53.164;5.802;2023-02-19T09:49:47;102467.28;;;6.49;100.00
52535;BME280;38443;53.164;5.802;2023-02-19T09:52:48;102468.09;;;6.42;100.00
52535;BME280;38443;53.164;5.802;2023-02-19T09:55:21;102469.88;;;6.45;100.00
52535;BME280;38443;53.164;5.802;2023-02-19T09:57:51;102474.41;;;6.53;100.00
52535;BME280;38443;53.164;5.802;2023-02-19T10:00:21;102476.38;;;6.67;100.00
52535;BME280;38443;53.164;5.802;2023-02-19T10:02:50;102488.00;;;6.72;100.00
52535;BME280;38443;53.164;5.802;2023-02-19T10:05:16;102497.66;;;6.64;100.00
52535;BME280;38443;53.164;5.802;2023-02-19T10:07:46;102502.63;;;6.41;100.00
52535;BME280;38443;53.164;5.802;2023-02-19T10:12:38;102523.66;;;6.24;100.00
52535;BME280;38443;53.164;5.802;2023-02-19T10:17:44;102530.91;;;6.34;100.00
52535;BME280;38443;53.164;5.802;2023-02-19T10:20:20;102537.91;;;6.29;100.00
52535;BME280;38443;53.164;5.802;2023-02-19T10:23:04;102534.41;;;6.33;100.00
52535;BME280;38443;53.164;5.802;2023-02-19T10:25:32;102529.13;;;6.34;100.00
52535;BME280;38443;53.164;5.802;2023-02-19T10:27:58;102536.19;;;6.32;100.00
52535;BME280;38443;53.164;5.802;2023-02-19T10:30:28;102538.72;;;6.25;100.00
52535;BME280;38443;53.164;5.802;2023-02-19T10:33:07;102539.66;;;6.27;100.00
52535;BME280;38443;53.164;5.802;2023-02-19T10:35:50;102536.19;;;6.32;100.00
52535;BME280;38443;53.164;5.802;2023-02-19T10:38:17;102538.09;;;6.41;100.00
52535;BME280;38443;53.164;5.802;2023-02-19T10:40:44;102535.53;;;6.46;100.00
52535;BME280;38443;53.164;5.802;2023-02-19T10:43:23;102532.97;;;6.55;100.00
52535;BME280;38443;53.164;5.802;2023-02-19T10:45:56;102530.41;;;6.61;100.00
52535;BME280;38443;53.164;5.802;2023-02-19T10:48:31;102534.84;;;6.61;100.00
52535;BME280;38443;53.164;5.802;2023-02-19T10:51:01;102536.53;;;6.55;100.00
52535;BME280;38443;53.164;5.802;2023-02-19T10:56:07;102541.97;;;6.62;100.00
52535;BME280;38443;53.164;5.802;2023-02-19T10:58:32;102538.50;;;6.69;100.00
52535;BME280;38443;53.164;5.802;2023-02-19T11:01:28;102542.97;;;6.71;100.00
52535;BME280;38443;53.164;5.802;2023-02-19T11:04:16;102553.75;;;6.81;100.00
52535;BME280;38443;53.164;5.802;2023-02-19T11:06:42;102550.28;;;6.86;100.00
52535;BME280;38443;53.164;5.802;2023-02-19T11:09:33;102542.31;;;6.88;100.00
52535;BME280;38443;53.164;5.802;2023-02-19T11:12:01;102539.72;;;6.95;100.00
52535;BME280;38443;53.164;5.802;2023-02-19T11:14:30;102547.88;;;7.06;100.00
52535;BME280;38443;53.164;5.802;2023-02-19T11:16:58;102540.81;;;7.11;100.00
52535;BME280;38443;53.164;5.802;2023-02-19T11:21:49;102539.72;;;6.92;100.00
52535;BME280;38443;53.164;5.802;2023-02-19T11:24:33;102534.41;;;6.95;100.00
52535;BME280;38443;53.164;5.802;2023-02-19T11:27:03;102538.91;;;6.98;100.00
52535;BME280;38443;53.164;5.802;2023-02-19T11:29:29;102534.50;;;7.03;100.00
52535;BME280;38443;53.164;5.802;2023-02-19T11:32:21;102540.75;;;7.04;100.00
52535;BME280;38443;53.164;5.802;2023-02-19T11:34:48;102546.16;;;7.10;100.00
52535;BME280;38443;53.164;5.802;2023-02-19T11:37:14;102554.13;;;7.08;100.00
52535;BME280;38443;53.164;5.802;2023-02-19T11:39:42;102555.06;;;7.13;100.00
52535;BME280;38443;53.164;5.802;2023-02-19T11:53:33;102538.59;;;6.75;100.00
52535;BME280;38443;53.164;5.802;2023-02-19T11:56:20;102541.19;;;6.70;100.00
52535;BME280;38443;53.164;5.802;2023-02-19T11:59:03;102546.50;;;6.70;100.00
52535;BME280;38443;53.164;5.802;2023-02-19T12:10:19;102562.09;;;7.07;100.00
52535;BME280;38443;53.164;5.802;2023-02-19T12:19:04;102587.03;;;7.15;100.00
52535;BME280;38443;53.164;5.802;2023-02-19T12:21:46;102582.66;;;7.18;100.00
52535;BME280;38443;53.164;5.802;2023-02-19T12:29:51;102569.47;;;7.31;100.00
52535;BME280;38443;53.164;5.802;2023-02-19T12:43:19;102589.00;;;7.31;100.00
52535;BME280;38443;53.164;5.802;2023-02-19T12:45:55;102598.81;;;7.32;100.00
52535;BME280;38443;53.164;5.802;2023-02-19T12:51:08;102611.28;;;7.36;100.00
52535;BME280;38443;53.164;5.802;2023-02-19T12:53:56;102616.47;;;7.27;100.00
52535;BME280;38443;53.164;5.802;2023-02-19T12:56:28;102622.69;;;7.25;100.00
52535;BME280;38443;53.164;5.802;2023-02-19T12:58:58;102631.47;;;7.19;100.00
52535;BME280;38443;53.164;5.802;2023-02-19T13:01:30;102628.69;;;7.10;100.00
52535;BME280;38443;53.164;5.802;2023-02-19T13:04:20;102631.28;;;7.05;100.00
52535;BME280;38443;53.164;5.802;2023-02-19T13:06:58;102622.44;;;7.06;100.00
52535;BME280;38443;53.164;5.802;2023-02-19T13:09:33;102620.56;;;7.01;100.00
52535;BME280;38443;53.164;5.802;2023-02-19T13:12:11;102601.06;;;7.03;100.00
52535;BME280;38443;53.164;5.802;2023-02-19T13:14:44;102609.97;;;7.04;100.00
52535;BME280;38443;53.164;5.802;2023-02-19T13:17:37;102616.19;;;7.04;100.00
52535;BME280;38443;53.164;5.802;2023-02-19T13:20:36;102622.41;;;7.05;100.00
52535;BME280;38443;53.164;5.802;2023-02-19T13:28:50;102630.53;;;7.14;100.00
52535;BME280;38443;53.164;5.802;2023-02-19T13:31:42;102631.44;;;7.17;100.00
52535;BME280;38443;53.164;5.802;2023-02-19T13:34:17;102626.09;;;7.14;100.00
52535;BME280;38443;53.164;5.802;2023-02-19T13:36:47;102619.06;;;7.21;100.00
52535;BME280;38443;53.164;5.802;2023-02-19T13:39:14;102624.44;;;7.23;100.00
52535;BME280;38443;53.164;5.802;2023-02-19T13:41:48;102610.06;;;7.11;100.00
52535;BME280;38443;53.164;5.802;2023-02-19T13:44:23;102606.44;;;7.05;100.00
52535;BME280;38443;53.164;5.802;2023-02-19T13:46:50;102601.13;;;7.06;100.00
52535;BME280;38443;53.164;5.802;2023-02-19T13:49:22;102593.03;;;6.98;100.00
52535;BME280;38443;53.164;5.802;2023-02-19T13:51:58;102588.69;;;7.04;100.00
52535;BME280;38443;53.164;5.802;2023-02-19T13:54:31;102593.91;;;6.99;100.00
52535;BME280;38443;53.164;5.802;2023-02-19T13:59:48;102575.38;;;7.04;100.00
52535;BME280;38443;53.164;5.802;2023-02-19T14:05:05;102578.00;;;7.02;100.00
52535;BME280;38443;53.164;5.802;2023-02-19T14:07:36;102570.94;;;7.04;100.00
52535;BME280;38443;53.164;5.802;2023-02-19T14:10:06;102564.75;;;7.07;100.00
52535;BME280;38443;53.164;5.802;2023-02-19T14:12:34;102570.06;;;7.07;100.00
52535;BME280;38443;53.164;5.802;2023-02-19T14:18:42;102553.09;;;6.98;100.00
52535;BME280;38443;53.164;5.802;2023-02-19T14:21:25;102555.75;;;6.98;100.00
52535;BME280;38443;53.164;5.802;2023-02-19T14:23:58;102546.84;;;6.95;100.00
52535;BME280;38443;53.164;5.802;2023-02-19T14:26:25;102550.38;;;6.94;100.00
52535;BME280;38443;53.164;5.802;2023-02-19T14:28:52;102543.41;;;7.02;100.00
52535;BME280;38443;53.164;5.802;2023-02-19T14:31:26;102549.66;;;7.07;100.00
52535;BME280;38443;53.164;5.802;2023-02-19T14:33:56;102550.53;;;7.06;100.00
52535;BME280;38443;53.164;5.802;2023-02-19T14:36:36;102548.63;;;6.96;100.00
52535;BME280;38443;53.164;5.802;2023-02-19T14:41:50;102544.91;;;6.82;100.00
52535;BME280;38443;53.164;5.802;2023-02-19T14:44:20;102549.31;;;6.79;100.00
52535;BME280;38443;53.164;5.802;2023-02-19T14:46:55;102556.34;;;6.76;100.00